sensor_id;sensor_type;location;lat;lon;timestamp;pressure;altitude;pressure_sealevel;temperature;humidity
12969;BME280;6549;53.128;8.182;2023-02-18T00:02:05;101666.50;;;5.42;100.00
12969;BME280;6549;53.128;8.182;2023-02-18T00:05:05;101663.09;;;5.45;100.00
12969;BME280;6549;53.128;8.182;2023-02-18T00:08:06;101683.13;;;5.49;100.00
12969;BME280;6549;53.128;8.182;2023-02-18T00:11:07;101675.28;;;5.48;100.00
12969;BME280;6549;53.128;8.182;2023-02-18T00:14:11;101671.44;;;5.49;100.00
12969;BME280;6549;53.128;8.182;2023-02-18T00:17:12;101668.38;;;5.50;100.00
12969;BME280;6549;53.128;8.182;2023-02-18T00:20:12;101672.03;;;5.54;100.00
12969;BME280;6549;53.128;8.182;2023-02-18T00:23:13;101665.47;;;5.55;100.00
12969;BME280;6549;53.128;8.182;2023-02-18T00:26:15;101655.81;;;5.58;100.00
12969;BME280;6549;53.128;8.182;2023-02-18T00:29:17;101667.19;;;5.60;100.00
12969;BME280;6549;53.128;8.182;2023-02-18T00:32:17;101664.16;;;5.61;100.00
12969;BME280;6549;53.128;8.182;2023-02-18T00:35:18;101666.53;;;5.63;100.00
12969;BME280;6549;53.128;8.182;2023-02-18T00:38:18;101660.09;;;5.67;100.00
12969;BME280;6549;53.128;8.182;2023-02-18T00:41:20;101661.69;;;5.68;100.00
12969;BME280;6549;53.128;8.182;2023-02-18T00:44:20;101658.28;;;5.71;100.00
12969;BME280;6549;53.128;8.182;2023-02-18T00:47:21;101658.59;;;5.78;100.00
12969;BME280;6549;53.128;8.182;2023-02-18T00:50:21;101650.22;;;5.83;100.00
12969;BME280;6549;53.128;8.182;2023-02-18T00:53:22;101648.75;;;5.86;100.00
12969;BME280;6549;53.128;8.182;2023-02-18T00:56:22;101633.22;;;5.86;100.00
12969;BME280;6549;53.128;8.182;2023-02-18T00:59:22;101641.19;;;5.92;100.00
12969;BME280;6549;53.128;8.182;2023-02-18T01:02:23;101640.06;;;5.93;100.00
12969;BME280;6549;53.128;8.182;2023-02-18T01:05:23;101633.94;;;5.96;100.00
12969;BME280;6549;53.128;8.182;2023-02-18T01:08:23;101627.81;;;5.99;100.00
12969;BME280;6549;53.128;8.182;2023-02-18T01:11:24;101627.81;;;5.99;100.00
12969;BME280;6549;53.128;8.182;2023-02-18T01:14:24;101628.94;;;5.98;100.00
12969;BME280;6549;53.128;8.182;2023-02-18T01:17:25;101621.84;;;6.05;100.00
12969;BME280;6549;53.128;8.182;2023-02-18T01:20:25;101619.09;;;6.05;100.00
12969;BME280;6549;53.128;8.182;2023-02-18T01:23:26;101606.59;;;6.04;100.00
12969;BME280;6549;53.128;8.182;2023-02-18T01:26:26;101603.88;;;6.04;100.00
12969;BME280;6549;53.128;8.182;2023-02-18T01:29:26;101604.34;;;6.06;100.00
12969;BME280;6549;53.128;8.182;2023-02-18T01:32:27;101605.13;;;6.07;100.00
12969;BME280;6549;53.128;8.182;2023-02-18T01:35:27;101614.91;;;6.08;100.00
12969;BME280;6549;53.128;8.182;2023-02-18T01:38:27;101600.81;;;6.06;100.00
12969;BME280;6549;53.128;8.182;2023-02-18T01:41:28;101615.56;;;6.05;100.00
12969;BME280;6549;53.128;8.182;2023-02-18T01:47:32;101613.44;;;6.10;100.00
12969;BME280;6549;53.128;8.182;2023-02-18T01:50:34;101607.84;;;6.07;100.00
12969;BME280;6549;53.128;8.182;2023-02-18T01:57:29;101607.41;;;6.05;100.00
12969;BME280;6549;53.128;8.182;2023-02-18T02:00:30;101608.19;;;6.05;100.00
12969;BME280;6549;53.128;8.182;2023-02-18T02:03:31;101610.25;;;6.08;100.00
12969;BME280;6549;53.128;8.182;2023-02-18T02:06:32;101604.00;;;6.08;100.00
12969;BME280;6549;53.128;8.182;2023-02-18T02:09:33;101603.78;;;6.13;100.00
12969;BME280;6549;53.128;8.182;2023-02-18T02:12:50;101604.91;;;6.12;100.00
12969;BME280;6549;53.128;8.182;2023-02-18T02:16:05;101598.31;;;6.13;100.00
12969;BME280;6549;53.128;8.182;2023-02-18T02:33:33;101595.06;;;6.19;100.00
12969;BME280;6549;53.128;8.182;2023-02-18T02:36:46;101581.06;;;6.21;100.00
12969;BME280;6549;53.128;8.182;2023-02-18T02:47:00;101545.38;;;6.26;100.00
12969;BME280;6549;53.128;8.182;2023-02-18T02:50:13;101536.06;;;6.27;100.00
12969;BME280;6549;53.128;8.182;2023-02-18T02:53:26;101530.13;;;6.25;100.00
12969;BME280;6549;53.128;8.182;2023-02-18T02:56:28;101529.34;;;6.24;100.00
12969;BME280;6549;53.128;8.182;2023-02-18T02:59:28;101528.56;;;6.24;100.00
12969;BME280;6549;53.128;8.182;2023-02-18T03:02:36;101526.59;;;6.24;100.00
12969;BME280;6549;53.128;8.182;2023-02-18T03:12:21;101494.09;;;6.19;100.00
12969;BME280;6549;53.128;8.182;2023-02-18T03:15:30;101500.31;;;6.20;100.00
12969;BME280;6549;53.128;8.182;2023-02-18T03:18:39;101496.81;;;6.19;100.00
12969;BME280;6549;53.128;8.182;2023-02-18T03:21:44;101494.88;;;6.20;100.00
12969;BME280;6549;53.128;8.182;2023-02-18T03:24:49;101494.88;;;6.20;100.00
12969;BME280;6549;53.128;8.182;2023-02-18T03:28:01;101487.03;;;6.18;100.00
12969;BME280;6549;53.128;8.182;2023-02-18T03:31:13;101474.19;;;6.19;100.00
12969;BME280;6549;53.128;8.182;2023-02-18T03:34:24;101472.59;;;6.18;100.00
12969;BME280;6549;53.128;8.182;2023-02-18T03:37:25;101464.41;;;6.18;100.00
12969;BME280;6549;53.128;8.182;2023-02-18T03:40:29;101460.56;;;6.19;100.00
12969;BME280;6549;53.128;8.182;2023-02-18T03:43:30;101466.00;;;6.19;100.00
12969;BME280;6549;53.128;8.182;2023-02-18T03:46:31;101464.41;;;6.18;100.00
12969;BME280;6549;53.128;8.182;2023-02-18T03:49:33;101467.13;;;6.18;100.00
12969;BME280;6549;53.128;8.182;2023-02-18T03:52:33;101471.00;;;6.17;100.00
12969;BME280;6549;53.128;8.182;2023-02-18T03:55:35;101460.06;;;6.17;100.00
12969;BME280;6549;53.128;8.182;2023-02-18T03:58:36;101460.06;;;6.17;100.00
12969;BME280;6549;53.128;8.182;2023-02-18T04:01:36;101461.19;;;6.16;100.00
12969;BME280;6549;53.128;8.182;2023-02-18T04:04:36;101461.19;;;6.16;100.00
12969;BME280;6549;53.128;8.182;2023-02-18T04:07:37;101438.56;;;6.15;100.00
12969;BME280;6549;53.128;8.182;2023-02-18T04:10:37;101435.41;;;6.13;100.00
12969;BME280;6549;53.128;8.182;2023-02-18T04:13:37;101430.75;;;6.14;100.00
12969;BME280;6549;53.128;8.182;2023-02-18T04:16:38;101420.63;;;6.14;100.00
12969;BME280;6549;53.128;8.182;2023-02-18T04:19:38;101409.25;;;6.12;100.00
12969;BME280;6549;53.128;8.182;2023-02-18T04:22:38;101409.72;;;6.14;100.00
12969;BME280;6549;53.128;8.182;2023-02-18T04:25:39;101400.25;;;6.12;100.00
12969;BME280;6549;53.128;8.182;2023-02-18T04:28:39;101409.25;;;6.12;100.00
12969;BME280;6549;53.128;8.182;2023-02-18T04:31:39;101400.72;;;6.14;100.00
12969;BME280;6549;53.128;8.182;2023-02-18T04:34:40;101396.88;;;6.15;100.00
12969;BME280;6549;53.128;8.182;2023-02-18T04:37:40;101404.16;;;6.23;100.00
12969;BME280;6549;53.128;8.182;2023-02-18T04:40:40;101396.41;;;6.25;100.00
12969;BME280;6549;53.128;8.182;2023-02-18T04:43:41;101397.78;;;6.31;100.00
12969;BME280;6549;53.128;8.182;2023-02-18T04:46:41;101396.88;;;6.39;100.00
12969;BME280;6549;53.128;8.182;2023-02-18T04:49:41;101402.22;;;6.48;100.00
12969;BME280;6549;53.128;8.182;2023-02-18T04:52:42;101393.47;;;6.54;100.00
12969;BME280;6549;53.128;8.182;2023-02-18T04:55:42;101379.59;;;6.59;100.00
12969;BME280;6549;53.128;8.182;2023-02-18T04:58:42;101376.06;;;6.59;100.00
12969;BME280;6549;53.128;8.182;2023-02-18T05:01:43;101371.38;;;6.59;100.00
12969;BME280;6549;53.128;8.182;2023-02-18T05:04:43;101371.38;;;6.59;100.00
12969;BME280;6549;53.128;8.182;2023-02-18T05:07:43;101369.78;;;6.58;100.00
12969;BME280;6549;53.128;8.182;2023-02-18T05:10:44;101362.25;;;6.55;100.00
12969;BME280;6549;53.128;8.182;2023-02-18T05:13:44;101352.50;;;6.54;100.00
12969;BME280;6549;53.128;8.182;2023-02-18T05:16:44;101348.19;;;6.53;100.00
12969;BME280;6549;53.128;8.182;2023-02-18T05:19:45;101343.06;;;6.52;100.00
12969;BME280;6549;53.128;8.182;2023-02-18T05:22:45;101342.25;;;6.51;100.00
12969;BME280;6549;53.128;8.182;2023-02-18T05:25:46;101325.44;;;6.49;100.00
12969;BME280;6549;53.128;8.182;2023-02-18T05:28:46;101317.25;;;6.49;100.00
12969;BME280;6549;53.128;8.182;2023-02-18T05:31:46;101298.47;;;6.48;100.00
12969;BME280;6549;53.128;8.182;2023-02-18T05:34:47;101301.53;;;6.46;100.00
12969;BME280;6549;53.128;8.182;2023-02-18T05:37:47;101292.44;;;6.42;100.00
12969;BME280;6549;53.128;8.182;2023-02-18T05:40:48;101288.16;;;6.41;100.00
12969;BME280;6549;53.128;8.182;2023-02-18T05:43:48;101273.22;;;6.39;100.00
12969;BME280;6549;53.128;8.182;2023-02-18T05:47:10;101259.16;;;6.37;100.00
12969;BME280;6549;53.128;8.182;2023-02-18T05:50:11;101257.66;;;6.39;100.00
12969;BME280;6549;53.128;8.182;2023-02-18T05:53:11;101243.91;;;6.36;100.00
12969;BME280;6549;53.128;8.182;2023-02-18T05:56:11;101241.97;;;6.36;100.00
12969;BME280;6549;53.128;8.182;2023-02-18T05:59:12;101221.28;;;6.35;100.00
12969;BME280;6549;53.128;8.182;2023-02-18T06:02:12;101229.47;;;6.35;100.00
12969;BME280;6549;53.128;8.182;2023-02-18T06:05:12;101216.94;;;6.34;100.00
12969;BME280;6549;53.128;8.182;2023-02-18T06:08:13;101209.88;;;6.33;100.00
12969;BME280;6549;53.128;8.182;2023-02-18T06:11:13;101215.47;;;6.37;100.00
12969;BME280;6549;53.128;8.182;2023-02-18T06:14:13;101210.81;;;6.37;100.00
12969;BME280;6549;53.128;8.182;2023-02-18T06:17:14;101211.25;;;6.39;100.00
12969;BME280;6549;53.128;8.182;2023-02-18T06:20:15;101209.31;;;6.40;100.00
12969;BME280;6549;53.128;8.182;2023-02-18T06:23:15;101207.03;;;6.42;100.00
12969;BME280;6549;53.128;8.182;2023-02-18T06:26:15;101187.56;;;6.43;100.00
12969;BME280;6549;53.128;8.182;2023-02-18T06:29:16;101194.16;;;6.42;100.00
12969;BME280;6549;53.128;8.182;2023-02-18T06:32:16;101198.50;;;6.43;100.00
12969;BME280;6549;53.128;8.182;2023-02-18T06:35:16;101180.97;;;6.44;100.00
12969;BME280;6549;53.128;8.182;2023-02-18T06:38:17;101162.66;;;6.45;100.00
12969;BME280;6549;53.128;8.182;2023-02-18T06:41:17;101165.03;;;6.46;100.00
12969;BME280;6549;53.128;8.182;2023-02-18T06:44:17;101160.03;;;6.48;100.00
12969;BME280;6549;53.128;8.182;2023-02-18T06:47:18;101150.25;;;6.47;100.00
12969;BME280;6549;53.128;8.182;2023-02-18T06:50:18;101141.72;;;6.49;100.00
12969;BME280;6549;53.128;8.182;2023-02-18T06:53:18;101129.28;;;6.51;100.00
12969;BME280;6549;53.128;8.182;2023-02-18T06:56:19;101120.75;;;6.53;100.00
12969;BME280;6549;53.128;8.182;2023-02-18T06:59:19;101111.06;;;6.55;100.00
12969;BME280;6549;53.128;8.182;2023-02-18T07:02:19;101102.88;;;6.55;100.00
12969;BME280;6549;53.128;8.182;2023-02-18T07:05:20;101096.28;;;6.56;100.00
12969;BME280;6549;53.128;8.182;2023-02-18T07:08:20;101092.06;;;6.59;100.00
12969;BME280;6549;53.128;8.182;2023-02-18T07:11:20;101092.16;;;6.62;100.00
12969;BME280;6549;53.128;8.182;2023-02-18T07:14:21;101078.59;;;6.66;100.00
12969;BME280;6549;53.128;8.182;2023-02-18T07:17:23;101072.88;;;6.71;100.00
12969;BME280;6549;53.128;8.182;2023-02-18T07:20:24;101083.88;;;6.74;100.00
12969;BME280;6549;53.128;8.182;2023-02-18T07:23:24;101073.03;;;6.78;100.00
12969;BME280;6549;53.128;8.182;2023-02-18T07:26:24;101064.59;;;6.83;100.00
12969;BME280;6549;53.128;8.182;2023-02-18T07:29:25;101046.81;;;6.89;100.00
12969;BME280;6549;53.128;8.182;2023-02-18T07:32:25;101051.81;;;7.03;100.00
12969;BME280;6549;53.128;8.182;2023-02-18T07:35:26;101045.44;;;7.14;100.00
12969;BME280;6549;53.128;8.182;2023-02-18T07:38:28;101036.63;;;7.21;100.00
12969;BME280;6549;53.128;8.182;2023-02-18T07:41:29;101029.53;;;7.36;100.00
12969;BME280;6549;53.128;8.182;2023-02-18T07:44:29;101031.78;;;7.49;100.00
12969;BME280;6549;53.128;8.182;2023-02-18T07:47:30;101033.97;;;7.59;100.00
12969;BME280;6549;53.128;8.182;2023-02-18T07:50:33;101042.09;;;7.75;100.00
12969;BME280;6549;53.128;8.182;2023-02-18T07:53:39;101025.84;;;7.82;100.00
12969;BME280;6549;53.128;8.182;2023-02-18T07:56:40;101025.47;;;8.03;100.00
12969;BME280;6549;53.128;8.182;2023-02-18T07:59:42;101030.22;;;8.06;100.00
12969;BME280;6549;53.128;8.182;2023-02-18T08:02:42;101024.03;;;8.09;100.00
12969;BME280;6549;53.128;8.182;2023-02-18T08:05:43;101013.66;;;8.18;100.00
12969;BME280;6549;53.128;8.182;2023-02-18T08:08:43;101008.34;;;8.29;100.00
12969;BME280;6549;53.128;8.182;2023-02-18T08:11:44;101015.22;;;8.38;100.00
12969;BME280;6549;53.128;8.182;2023-02-18T08:14:44;101020.41;;;8.43;100.00
12969;BME280;6549;53.128;8.182;2023-02-18T08:17:44;101018.50;;;8.47;100.00
12969;BME280;6549;53.128;8.182;2023-02-18T08:20:46;101003.41;;;8.57;100.00
12969;BME280;6549;53.128;8.182;2023-02-18T08:23:46;101016.88;;;8.66;100.00
12969;BME280;6549;53.128;8.182;2023-02-18T08:26:47;101005.59;;;8.71;100.00
12969;BME280;6549;53.128;8.182;2023-02-18T08:29:47;100999.94;;;8.83;100.00
12969;BME280;6549;53.128;8.182;2023-02-18T08:32:47;101003.50;;;8.87;100.00
12969;BME280;6549;53.128;8.182;2023-02-18T08:35:49;101004.75;;;8.89;100.00
12969;BME280;6549;53.128;8.182;2023-02-18T08:38:50;100993.41;;;8.91;100.00
12969;BME280;6549;53.128;8.182;2023-02-18T08:41:50;101003.69;;;8.97;100.00
12969;BME280;6549;53.128;8.182;2023-02-18T08:44:50;100993.94;;;9.00;100.00
12969;BME280;6549;53.128;8.182;2023-02-18T08:47:51;100985.47;;;9.12;100.00
12969;BME280;6549;53.128;8.182;2023-02-18T08:50:52;100983.13;;;9.11;100.00
12969;BME280;6549;53.128;8.182;2023-02-18T08:53:52;100978.84;;;9.13;100.00
12969;BME280;6549;53.128;8.182;2023-02-18T08:56:54;100982.44;;;9.17;100.00
12969;BME280;6549;53.128;8.182;2023-02-18T08:59:54;100982.53;;;9.24;100.00
12969;BME280;6549;53.128;8.182;2023-02-18T09:02:55;100979.09;;;9.31;100.00
12969;BME280;6549;53.128;8.182;2023-02-18T09:05:56;100969.75;;;9.35;100.00
12969;BME280;6549;53.128;8.182;2023-02-18T09:08:56;100971.69;;;9.35;100.00
12969;BME280;6549;53.128;8.182;2023-02-18T09:11:56;100962.31;;;9.36;100.00
12969;BME280;6549;53.128;8.182;2023-02-18T09:14:57;100967.84;;;9.39;100.00
12969;BME280;6549;53.128;8.182;2023-02-18T09:17:57;100965.94;;;9.43;100.00
12969;BME280;6549;53.128;8.182;2023-02-18T09:20:59;100957.72;;;9.43;100.00
12969;BME280;6549;53.128;8.182;2023-02-18T09:24:00;100966.34;;;9.42;100.00
12969;BME280;6549;53.128;8.182;2023-02-18T09:27:02;100961.69;;;9.46;100.00
12969;BME280;6549;53.128;8.182;2023-02-18T09:30:03;100948.75;;;9.46;100.00
12969;BME280;6549;53.128;8.182;2023-02-18T09:33:04;100947.56;;;9.47;100.00
12969;BME280;6549;53.128;8.182;2023-02-18T09:36:04;100953.06;;;9.47;100.00
12969;BME280;6549;53.128;8.182;2023-02-18T09:39:05;100947.56;;;9.47;100.00
12969;BME280;6549;53.128;8.182;2023-02-18T09:42:14;100934.97;;;9.43;100.00
12969;BME280;6549;53.128;8.182;2023-02-18T09:45:15;100950.22;;;9.40;100.00
12969;BME280;6549;53.128;8.182;2023-02-18T09:48:16;100957.72;;;9.43;100.00
12969;BME280;6549;53.128;8.182;2023-02-18T09:51:17;100947.91;;;9.42;100.00
12969;BME280;6549;53.128;8.182;2023-02-18T09:54:19;100943.59;;;9.41;100.00
12969;BME280;6549;53.128;8.182;2023-02-18T09:57:31;100936.16;;;9.42;100.00
12969;BME280;6549;53.128;8.182;2023-02-18T10:00:40;100933.06;;;9.47;100.00
12969;BME280;6549;53.128;8.182;2023-02-18T10:03:40;100944.81;;;9.47;100.00
12969;BME280;6549;53.128;8.182;2023-02-18T10:06:44;100939.34;;;9.47;100.00
12969;BME280;6549;53.128;8.182;2023-02-18T10:09:47;100942.91;;;9.52;100.00
12969;BME280;6549;53.128;8.182;2023-02-18T10:12:50;100943.31;;;9.50;100.00
12969;BME280;6549;53.128;8.182;2023-02-18T10:15:51;100947.56;;;9.47;100.00
12969;BME280;6549;53.128;8.182;2023-02-18T10:18:57;100946.06;;;9.50;100.00
12969;BME280;6549;53.128;8.182;2023-02-18T10:22:00;100949.91;;;9.45;100.00
12969;BME280;6549;53.128;8.182;2023-02-18T10:25:03;100951.09;;;9.48;100.00
12969;BME280;6549;53.128;8.182;2023-02-18T10:28:06;100951.91;;;9.48;100.00
12969;BME280;6549;53.128;8.182;2023-02-18T10:31:08;100957.81;;;9.51;100.00
12969;BME280;6549;53.128;8.182;2023-02-18T10:37:34;100935.13;;;9.54;100.00
12969;BME280;6549;53.128;8.182;2023-02-18T10:50:57;100925.63;;;9.47;100.00
12969;BME280;6549;53.128;8.182;2023-02-18T10:54:00;100927.25;;;9.52;100.00
12969;BME280;6549;53.128;8.182;2023-02-18T10:57:00;100941.41;;;9.54;100.00
12969;BME280;6549;53.128;8.182;2023-02-18T11:00:14;100944.50;;;9.53;100.00
12969;BME280;6549;53.128;8.182;2023-02-18T11:03:18;100943.78;;;9.56;100.00
12969;BME280;6549;53.128;8.182;2023-02-18T11:09:45;100941.34;;;9.51;100.00
12969;BME280;6549;53.128;8.182;2023-02-18T11:12:50;100952.25;;;9.47;100.00
12969;BME280;6549;53.128;8.182;2023-02-18T11:16:04;100939.78;;;9.50;100.00
12969;BME280;6549;53.128;8.182;2023-02-18T11:19:31;100950.00;;;9.53;100.00
12969;BME280;6549;53.128;8.182;2023-02-18T11:22:34;100962.03;;;9.44;100.00
12969;BME280;6549;53.128;8.182;2023-02-18T11:25:41;100954.66;;;9.48;100.00
12969;BME280;6549;53.128;8.182;2023-02-18T11:28:56;100962.97;;;9.56;100.00
12969;BME280;6549;53.128;8.182;2023-02-18T11:31:59;100958.53;;;9.47;100.00
12969;BME280;6549;53.128;8.182;2023-02-18T11:35:00;100957.75;;;9.47;100.00
12969;BME280;6549;53.128;8.182;2023-02-18T11:38:03;100958.97;;;9.50;100.00
12969;BME280;6549;53.128;8.182;2023-02-18T11:41:16;100957.84;;;9.54;100.00
12969;BME280;6549;53.128;8.182;2023-02-18T11:44:29;100951.16;;;9.52;100.00
12969;BME280;6549;53.128;8.182;2023-02-18T11:47:35;100965.75;;;9.59;100.00
12969;BME280;6549;53.128;8.182;2023-02-18T11:50:36;100968.94;;;9.65;100.00
12969;BME280;6549;53.128;8.182;2023-02-18T11:53:36;100973.28;;;9.66;100.00
12969;BME280;6549;53.128;8.182;2023-02-18T11:56:37;100968.19;;;9.64;100.00
12969;BME280;6549;53.128;8.182;2023-02-18T11:59:39;100963.84;;;9.63;100.00
12969;BME280;6549;53.128;8.182;2023-02-18T12:02:40;100967.38;;;9.64;100.00
12969;BME280;6549;53.128;8.182;2023-02-18T12:05:41;100960.34;;;9.66;100.00
12969;BME280;6549;53.128;8.182;2023-02-18T12:08:56;100961.13;;;9.67;100.00
12969;BME280;6549;53.128;8.182;2023-02-18T12:12:02;100968.53;;;9.63;100.00
12969;BME280;6549;53.128;8.182;2023-02-18T12:15:08;100977.94;;;9.62;100.00
12969;BME280;6549;53.128;8.182;2023-02-18T12:21:56;100986.19;;;9.65;100.00
12969;BME280;6549;53.128;8.182;2023-02-18T12:31:37;100971.34;;;9.70;100.00
12969;BME280;6549;53.128;8.182;2023-02-18T12:34:57;100977.25;;;9.68;100.00
12969;BME280;6549;53.128;8.182;2023-02-18T12:52:00;100978.59;;;9.85;100.00
12969;BME280;6549;53.128;8.182;2023-02-18T12:55:24;100995.91;;;9.89;100.00
12969;BME280;6549;53.128;8.182;2023-02-18T13:05:44;101008.53;;;9.97;100.00
12969;BME280;6549;53.128;8.182;2023-02-18T13:09:16;100997.69;;;10.08;100.00
12969;BME280;6549;53.128;8.182;2023-02-18T13:15:52;100993.00;;;10.08;100.00
12969;BME280;6549;53.128;8.182;2023-02-18T13:22:29;100998.09;;;10.10;100.00
12969;BME280;6549;53.128;8.182;2023-02-18T13:25:36;100993.03;;;10.12;100.00
12969;BME280;6549;53.128;8.182;2023-02-18T13:28:42;101011.44;;;10.11;100.00
12969;BME280;6549;53.128;8.182;2023-02-18T13:31:54;101008.00;;;10.18;100.00
12969;BME280;6549;53.128;8.182;2023-02-18T13:35:04;101008.41;;;10.16;100.00
12969;BME280;6549;53.128;8.182;2023-02-18T13:41:18;100989.84;;;10.10;100.00
12969;BME280;6549;53.128;8.182;2023-02-18T13:47:45;101024.75;;;10.09;100.00
12969;BME280;6549;53.128;8.182;2023-02-18T13:50:46;101016.13;;;10.07;100.00
12969;BME280;6549;53.128;8.182;2023-02-18T13:53:50;101011.41;;;10.08;100.00
12969;BME280;6549;53.128;8.182;2023-02-18T13:57:12;101015.34;;;10.10;100.00
12969;BME280;6549;53.128;8.182;2023-02-18T14:00:20;101011.88;;;10.13;100.00
12969;BME280;6549;53.128;8.182;2023-02-18T14:03:34;101032.22;;;10.09;100.00
12969;BME280;6549;53.128;8.182;2023-02-18T14:07:16;101035.34;;;10.07;100.00
12969;BME280;6549;53.128;8.182;2023-02-18T14:13:37;101040.19;;;10.17;100.00
12969;BME280;6549;53.128;8.182;2023-02-18T14:26:24;101069.03;;;10.04;100.00
12969;BME280;6549;53.128;8.182;2023-02-18T14:29:29;101058.78;;;10.01;100.00
12969;BME280;6549;53.128;8.182;2023-02-18T14:32:30;101068.69;;;10.09;100.00
12969;BME280;6549;53.128;8.182;2023-02-18T14:35:47;101064.75;;;10.07;100.00
12969;BME280;6549;53.128;8.182;2023-02-18T14:42:25;101067.53;;;10.10;100.00
12969;BME280;6549;53.128;8.182;2023-02-18T14:52:25;101081.66;;;10.09;100.00
12969;BME280;6549;53.128;8.182;2023-02-18T14:55:34;101080.72;;;9.98;100.00
12969;BME280;6549;53.128;8.182;2023-02-18T14:58:40;101083.88;;;10.00;100.00
12969;BME280;6549;53.128;8.182;2023-02-18T15:01:46;101088.53;;;9.96;100.00
12969;BME280;6549;53.128;8.182;2023-02-18T15:04:47;101099.84;;;9.90;100.00
12969;BME280;6549;53.128;8.182;2023-02-18T15:08:03;101104.06;;;9.84;100.00
12969;BME280;6549;53.128;8.182;2023-02-18T15:11:06;101104.88;;;9.85;100.00
12969;BME280;6549;53.128;8.182;2023-02-18T15:14:25;101105.69;;;9.89;100.00
12969;BME280;6549;53.128;8.182;2023-02-18T15:17:28;101121.34;;;9.85;100.00
12969;BME280;6549;53.128;8.182;2023-02-18T15:20:31;101120.19;;;9.86;100.00
12969;BME280;6549;53.128;8.182;2023-02-18T15:23:38;101128.41;;;9.86;100.00
12969;BME280;6549;53.128;8.182;2023-02-18T15:26:45;101120.50;;;9.81;100.00
12969;BME280;6549;53.128;8.182;2023-02-18T15:29:56;101125.56;;;9.79;100.00
12969;BME280;6549;53.128;8.182;2023-02-18T15:32:59;101132.09;;;9.71;100.00
12969;BME280;6549;53.128;8.182;2023-02-18T15:36:04;101138.38;;;9.71;100.00
12969;BME280;6549;53.128;8.182;2023-02-18T15:39:06;101143.03;;;9.67;100.00
12969;BME280;6549;53.128;8.182;2023-02-18T15:42:27;101151.88;;;9.57;100.00
12969;BME280;6549;53.128;8.182;2023-02-18T15:45:34;101153.38;;;9.51;100.00
12969;BME280;6549;53.128;8.182;2023-02-18T15:48:43;101147.41;;;9.45;100.00
12969;BME280;6549;53.128;8.182;2023-02-18T15:51:44;101155.94;;;9.40;100.00
12969;BME280;6549;53.128;8.182;2023-02-18T15:54:45;101156.25;;;9.35;100.00
12969;BME280;6549;53.128;8.182;2023-02-18T15:57:45;101153.50;;;9.35;100.00
12969;BME280;6549;53.128;8.182;2023-02-18T16:00:49;101164.06;;;9.33;100.00
12969;BME280;6549;53.128;8.182;2023-02-18T16:03:50;101169.41;;;9.26;100.00
12969;BME280;6549;53.128;8.182;2023-02-18T16:06:52;101163.63;;;9.31;100.00
12969;BME280;6549;53.128;8.182;2023-02-18T16:10:09;101172.41;;;9.18;100.00
12969;BME280;6549;53.128;8.182;2023-02-18T16:13:15;101171.56;;;9.14;100.00
12969;BME280;6549;53.128;8.182;2023-02-18T16:16:35;101169.84;;;9.06;100.00
12969;BME280;6549;53.128;8.182;2023-02-18T16:19:47;101172.59;;;9.06;100.00
12969;BME280;6549;53.128;8.182;2023-02-18T16:22:54;101180.81;;;9.06;100.00
12969;BME280;6549;53.128;8.182;2023-02-18T16:25:54;101181.91;;;9.01;100.00
12969;BME280;6549;53.128;8.182;2023-02-18T16:32:20;101195.13;;;8.95;100.00
12969;BME280;6549;53.128;8.182;2023-02-18T16:35:21;101193.63;;;8.98;100.00
12969;BME280;6549;53.128;8.182;2023-02-18T16:38:23;101193.63;;;8.98;100.00
12969;BME280;6549;53.128;8.182;2023-02-18T16:41:24;101193.91;;;8.93;100.00
12969;BME280;6549;53.128;8.182;2023-02-18T16:44:24;101195.84;;;8.92;100.00
12969;BME280;6549;53.128;8.182;2023-02-18T16:47:25;101199.22;;;8.86;100.00
12969;BME280;6549;53.128;8.182;2023-02-18T16:50:26;101200.81;;;8.87;100.00
12969;BME280;6549;53.128;8.182;2023-02-18T16:53:27;101204.31;;;8.84;100.00
12969;BME280;6549;53.128;8.182;2023-02-18T16:56:32;101210.50;;;8.81;100.00
12969;BME280;6549;53.128;8.182;2023-02-18T16:59:34;101215.31;;;8.87;100.00
12969;BME280;6549;53.128;8.182;2023-02-18T17:02:34;101213.53;;;8.76;100.00
12969;BME280;6549;53.128;8.182;2023-02-18T17:05:35;101221.03;;;8.79;100.00
12969;BME280;6549;53.128;8.182;2023-02-18T17:08:38;101224.41;;;8.72;100.00
12969;BME280;6549;53.128;8.182;2023-02-18T17:11:38;101225.06;;;8.66;100.00
12969;BME280;6549;53.128;8.182;2023-02-18T17:14:45;101225.81;;;8.63;100.00
12969;BME280;6549;53.128;8.182;2023-02-18T17:17:45;101238.13;;;8.53;100.00
12969;BME280;6549;53.128;8.182;2023-02-18T17:20:50;101242.53;;;8.57;100.00
12969;BME280;6549;53.128;8.182;2023-02-18T17:23:51;101245.91;;;8.51;100.00
12969;BME280;6549;53.128;8.182;2023-02-18T17:26:51;101252.44;;;8.46;100.00
12969;BME280;6549;53.128;8.182;2023-02-18T17:29:52;101255.03;;;8.39;100.00
12969;BME280;6549;53.128;8.182;2023-02-18T17:32:52;101268.22;;;8.34;100.00
12969;BME280;6549;53.128;8.182;2023-02-18T17:35:53;101274.31;;;8.27;100.00
12969;BME280;6549;53.128;8.182;2023-02-18T17:38:53;101278.47;;;8.21;100.00
12969;BME280;6549;53.128;8.182;2023-02-18T17:41:53;101282.34;;;8.20;100.00
12969;BME280;6549;53.128;8.182;2023-02-18T17:44:53;101288.09;;;8.15;100.00
12969;BME280;6549;53.128;8.182;2023-02-18T17:47:55;101287.28;;;8.14;100.00
12969;BME280;6549;53.128;8.182;2023-02-18T17:50:56;101280.94;;;8.10;100.00
12969;BME280;6549;53.128;8.182;2023-02-18T17:53:56;101293.50;;;8.11;100.00
12969;BME280;6549;53.128;8.182;2023-02-18T17:56:57;101295.44;;;8.11;100.00
12969;BME280;6549;53.128;8.182;2023-02-18T17:59:57;101298.44;;;8.06;100.00
12969;BME280;6549;53.128;8.182;2023-02-18T18:02:58;101309.31;;;8.02;100.00
12969;BME280;6549;53.128;8.182;2023-02-18T18:05:59;101315.16;;;8.01;100.00
12969;BME280;6549;53.128;8.182;2023-02-18T18:08:59;101307.22;;;7.96;100.00
12969;BME280;6549;53.128;8.182;2023-02-18T18:12:00;101316.97;;;7.97;100.00
12969;BME280;6549;53.128;8.182;2023-02-18T18:15:00;101317.69;;;7.94;100.00